Time;durP1;ratioP1;P1;durP2;ratioP2;P2;SDS_P1;SDS_P2;PMS_P1;PMS_P2;Temp;Humidity;BMP_temperature;BMP_pressure;BME280_temperature;BME280_humidity;BME280_pressure;Samples;Min_cycle;Max_cycle;Signal;HPM_P1;HPM_P2
2023/10/03 00:00:24;;;;;;;39.05;21.10;;;23.30;99.90;;;;;;5092470;28;20040;-77
2023/10/03 00:02:54;;;;;;;42.08;22.45;;;23.10;99.90;;;;;;5092837;28;20119;-77
2023/10/03 00:05:22;;;;;;;42.70;22.45;;;23.10;99.90;;;;;;5092565;28;20048;-77
2023/10/03 00:07:51;;;;;;;42.97;22.92;;;23.00;99.90;;;;;;5091923;28;20142;-77
2023/10/03 00:10:17;;;;;;;43.90;23.80;;;23.30;99.90;;;;;;5091979;28;20097;-77
2023/10/03 00:12:44;;;;;;;42.50;23.35;;;23.00;99.90;;;;;;5092026;28;20044;-77
2023/10/03 00:15:12;;;;;;;44.95;23.17;;;23.30;99.90;;;;;;5092045;28;20381;-77
2023/10/03 00:17:39;;;;;;;37.28;21.30;;;23.40;99.90;;;;;;5091995;28;20124;-77
2023/10/03 00:20:05;;;;;;;56.85;24.50;;;23.10;99.90;;;;;;5074916;28;20050;-77
2023/10/03 00:22:31;;;;;;;42.05;22.83;;;22.30;99.90;;;;;;5092176;28;20039;-77
2023/10/03 00:24:56;;;;;;;43.25;23.92;;;23.40;99.90;;;;;;5092368;28;20040;-77
2023/10/03 00:27:23;;;;;;;47.25;25.48;;;23.00;99.90;;;;;;5091844;28;20085;-77
2023/10/03 00:29:51;;;;;;;44.67;22.92;;;23.40;99.90;;;;;;5091669;28;20040;-77
2023/10/03 00:32:16;;;;;;;41.63;23.42;;;23.20;99.90;;;;;;5092191;28;20410;-77
2023/10/03 00:34:42;;;;;;;46.45;23.65;;;23.50;99.90;;;;;;5091918;28;20123;-77
2023/10/03 00:37:08;;;;;;;44.67;23.20;;;23.20;99.90;;;;;;5092063;28;20380;-77
2023/10/03 00:39:33;;;;;;;41.60;23.17;;;23.40;99.90;;;;;;5091759;28;20097;-77
2023/10/03 00:42:07;;;;;;;42.30;23.25;;;24.00;99.90;;;;;;5091309;28;20032;-77
2023/10/03 00:44:33;;;;;;;42.13;23.73;;;23.40;99.90;;;;;;5074843;28;20097;-77
2023/10/03 00:46:59;;;;;;;49.80;24.15;;;22.90;99.90;;;;;;5091391;28;20043;-77
2023/10/03 00:49:24;;;;;;;43.78;23.92;;;23.20;99.90;;;;;;5091591;28;20058;-77
2023/10/03 00:51:51;;;;;;;44.72;24.00;;;22.80;99.90;;;;;;5091901;28;20119;-76
2023/10/03 00:54:17;;;;;;;45.05;22.02;;;23.20;99.90;;;;;;5091521;28;20047;-76
2023/10/03 00:56:45;;;;;;;42.28;22.30;;;23.10;99.90;;;;;;5091503;28;20040;-76
2023/10/03 00:59:10;;;;;;;42.05;23.42;;;23.10;99.90;;;;;;5074567;28;20063;-76
2023/10/03 01:01:37;;;;;;;43.42;23.65;;;23.30;99.90;;;;;;5091471;28;20463;-76
2023/10/03 01:04:04;;;;;;;49.50;23.55;;;22.90;99.90;;;;;;5091357;28;20123;-77
2023/10/03 01:06:30;;;;;;;41.13;22.42;;;23.20;99.90;;;;;;5091616;28;20047;-77
2023/10/03 01:08:58;;;;;;;46.15;23.08;;;23.20;99.90;;;;;;5091114;28;20499;-77
2023/10/03 01:11:25;;;;;;;39.30;22.30;;;23.20;99.90;;;;;;5091374;28;20511;-77
2023/10/03 01:13:56;;;;;;;40.60;23.08;;;23.10;99.90;;;;;;5074182;28;20118;-77
2023/10/03 01:16:41;;;;;;;47.20;23.40;;;23.00;99.90;;;;;;5091015;28;20051;-77
2023/10/03 01:21:42;;;;;;;42.28;21.90;;;22.90;99.90;;;;;;5091210;28;20047;-77
2023/10/03 01:24:26;;;;;;;43.35;22.45;;;23.50;99.90;;;;;;5091303;28;20040;-77
2023/10/03 01:26:53;;;;;;;41.17;21.00;;;23.00;99.90;;;;;;5090974;28;20089;-77
2023/10/03 01:29:22;;;;;;;38.83;21.45;;;22.80;99.90;;;;;;5091183;28;20384;-76
2023/10/03 01:31:49;;;;;;;41.47;21.67;;;23.70;99.90;;;;;;5091217;28;20044;-76
2023/10/03 01:34:15;;;;;;;44.40;22.35;;;23.10;99.90;;;;;;5090826;28;20093;-76
2023/10/03 01:36:45;;;;;;;39.42;21.38;;;23.10;99.90;;;;;;5090850;28;20039;-77
2023/10/03 01:39:12;;;;;;;40.58;20.83;;;22.60;99.90;;;;;;5090800;28;20040;-76
2023/10/03 01:41:37;;;;;;;41.00;20.95;;;22.90;99.90;;;;;;5090391;28;20399;-77
2023/10/03 01:44:03;;;;;;;40.75;20.65;;;23.20;99.90;;;;;;5090736;28;20055;-77
2023/10/03 01:46:29;;;;;;;39.08;19.65;;;23.20;99.90;;;;;;5073870;28;20070;-77
2023/10/03 01:48:57;;;;;;;40.95;19.85;;;22.90;99.90;;;;;;5090575;28;20040;-77
2023/10/03 01:51:23;;;;;;;38.17;18.80;;;23.10;99.90;;;;;;5073836;28;20044;-77
2023/10/03 01:53:48;;;;;;;40.08;20.08;;;22.90;99.90;;;;;;5090845;28;20040;-76
2023/10/03 01:56:14;;;;;;;37.00;19.50;;;23.00;99.90;;;;;;5074035;28;20540;-77
2023/10/03 01:58:40;;;;;;;37.67;18.80;;;;;;;;;;5090416;28;20040;-77
2023/10/03 02:01:07;;;;;;;38.30;19.90;;;;;;;;;;5090210;28;20582;-77
2023/10/03 02:03:35;;;;;;;42.88;20.00;;;22.80;99.90;;;;;;5090801;28;20104;-77
2023/10/03 02:06:00;;;;;;;40.13;19.55;;;23.30;99.90;;;;;;5090329;28;20046;-77
2023/10/03 02:08:26;;;;;;;41.50;20.95;;;23.40;99.90;;;;;;5072067;28;20123;-77
2023/10/03 02:10:53;;;;;;;37.17;19.20;;;23.30;99.90;;;;;;5090190;28;20043;-77
2023/10/03 02:13:21;;;;;;;37.53;18.75;;;23.20;99.90;;;;;;5073561;28;20036;-77
2023/10/03 02:15:48;;;;;;;39.38;18.65;;;23.20;99.90;;;;;;5090178;28;20040;-77
2023/10/03 02:18:18;;;;;;;36.78;18.75;;;22.80;99.90;;;;;;5090261;28;20127;-77
2023/10/03 02:20:53;;;;;;;35.25;18.08;;;23.40;99.90;;;;;;5090063;28;20123;-77
2023/10/03 02:23:24;;;;;;;38.42;17.98;;;23.00;99.90;;;;;;5090637;28;20032;-77
2023/10/03 02:25:50;;;;;;;39.00;18.15;;;23.10;99.90;;;;;;5090285;28;20036;-77
2023/10/03 02:28:17;;;;;;;38.58;18.50;;;23.10;99.90;;;;;;5073599;28;20044;-77
2023/10/03 02:30:48;;;;;;;36.13;17.80;;;23.00;99.90;;;;;;5090446;28;20048;-77
2023/10/03 02:33:15;;;;;;;47.45;18.98;;;23.40;99.90;;;;;;5090433;28;20044;-74
2023/10/03 02:35:42;;;;;;;42.33;18.73;;;23.40;99.90;;;;;;5090359;28;20558;-74
2023/10/03 02:38:14;;;;;;;38.55;17.50;;;23.40;99.90;;;;;;5073359;28;20051;-76
2023/10/03 02:40:41;;;;;;;39.95;17.73;;;23.30;99.90;;;;;;5089739;28;20033;-76
2023/10/03 02:43:10;;;;;;;42.17;18.48;;;23.20;99.90;;;;;;5088666;28;20041;-76
2023/10/03 02:45:35;;;;;;;38.95;18.30;;;23.90;99.90;;;;;;5088460;28;20403;-76
2023/10/03 02:48:09;;;;;;;40.10;19.02;;;;;;;;;;5088920;28;20040;-76
2023/10/03 02:50:35;;;;;;;39.90;17.58;;;23.40;99.90;;;;;;5089546;28;20055;-77
2023/10/03 02:53:22;;;;;;;37.95;18.88;;;23.20;99.90;;;;;;5091496;28;20039;-76
2023/10/03 02:55:48;;;;;;;38.70;17.85;;;23.50;99.90;;;;;;5092994;28;20507;-76
2023/10/03 02:58:14;;;;;;;36.80;17.58;;;23.20;99.90;;;;;;5093712;28;20043;-76
2023/10/03 03:00:41;;;;;;;35.75;16.70;;;23.10;99.90;;;;;;5093563;28;20036;-76
2023/10/03 03:03:09;;;;;;;38.05;17.73;;;23.40;99.90;;;;;;5093556;28;20488;-76
2023/10/03 03:05:36;;;;;;;35.90;16.10;;;23.40;99.90;;;;;;5093491;28;20087;-77
2023/10/03 03:10:56;;;;;;;34.92;17.33;;;23.20;99.90;;;;;;5093334;28;20048;-77
2023/10/03 03:13:26;;;;;;;36.70;17.30;;;23.40;99.90;;;;;;5094850;28;20036;-76
2023/10/03 03:15:59;;;;;;;37.90;17.60;;;23.50;99.90;;;;;;5093373;28;20547;-76
2023/10/03 03:18:25;;;;;;;34.88;17.25;;;23.50;99.90;;;;;;5093253;28;20033;-76
2023/10/03 03:21:10;;;;;;;36.60;18.70;;;23.60;99.90;;;;;;5093279;28;20044;-76
2023/10/03 03:23:36;;;;;;;36.55;17.80;;;23.60;99.90;;;;;;5093376;28;20491;-76
2023/10/03 03:26:36;;;;;;;35.38;17.42;;;23.50;99.90;;;;;;5093332;28;20530;-76
2023/10/03 03:28:50;;;;;;;30.67;14.80;;;23.40;99.90;;;;;;5092862;28;20131;-76
2023/10/03 03:31:20;;;;;;;33.58;17.13;;;23.20;99.90;;;;;;5093396;28;20612;-77
2023/10/03 03:33:47;;;;;;;38.95;16.75;;;23.50;99.90;;;;;;5092925;28;20035;-77
2023/10/03 03:36:20;;;;;;;36.13;18.95;;;23.60;99.90;;;;;;5093370;28;20104;-77
2023/10/03 03:38:47;;;;;;;33.08;16.65;;;23.30;99.90;;;;;;5093381;28;20097;-76
2023/10/03 03:41:13;;;;;;;38.08;17.70;;;23.20;99.90;;;;;;5075918;28;20096;-77
2023/10/03 03:43:39;;;;;;;37.13;17.05;;;23.20;99.90;;;;;;5092962;28;20032;-77
2023/10/03 03:46:05;;;;;;;37.10;18.42;;;23.40;99.90;;;;;;5092790;28;20041;-77
2023/10/03 03:48:34;;;;;;;36.08;16.98;;;23.50;99.90;;;;;;5075816;28;20563;-76
2023/10/03 03:51:08;;;;;;;31.08;15.63;;;23.30;99.90;;;;;;5092531;28;20044;-77
2023/10/03 03:53:34;;;;;;;34.22;17.58;;;23.30;99.90;;;;;;5093076;28;20048;-77
2023/10/03 03:56:00;;;;;;;39.30;17.83;;;23.30;99.90;;;;;;5092663;28;20491;-76
2023/10/03 03:58:26;;;;;;;36.83;15.88;;;23.30;99.90;;;;;;5092483;28;20384;-76
2023/10/03 04:00:52;;;;;;;29.70;14.75;;;23.20;99.90;;;;;;5075733;28;20521;-76
2023/10/03 04:03:19;;;;;;;32.72;16.10;;;23.40;99.90;;;;;;5075307;28;20071;-77
2023/10/03 04:05:49;;;;;;;38.30;16.52;;;23.10;99.90;;;;;;5075904;28;20052;-77
2023/10/03 04:08:15;;;;;;;36.75;16.30;;;23.10;99.90;;;;;;5075368;28;20510;-77
2023/10/03 04:10:43;;;;;;;34.60;17.67;;;23.40;99.90;;;;;;5092254;28;20044;-76
2023/10/03 04:13:10;;;;;;;37.38;16.77;;;23.10;99.90;;;;;;5075429;28;20047;-76
2023/10/03 04:15:40;;;;;;;33.15;16.75;;;23.30;99.90;;;;;;5092365;28;20119;-77
2023/10/03 04:18:09;;;;;;;41.33;16.88;;;23.20;99.90;;;;;;5075194;28;20036;-77
2023/10/03 04:20:35;;;;;;;34.90;15.95;;;23.20;99.90;;;;;;5091999;28;20043;-76
2023/10/03 04:23:06;;;;;;;32.42;15.20;;;23.40;99.90;;;;;;5075798;28;20399;-77
2023/10/03 04:25:33;;;;;;;32.00;15.02;;;23.40;99.90;;;;;;5092099;28;20040;-76
2023/10/03 04:27:59;;;;;;;32.83;15.48;;;23.10;99.90;;;;;;5091777;28;20055;-77
2023/10/03 04:30:26;;;;;;;32.95;15.23;;;23.30;99.90;;;;;;5074781;28;20035;-76
2023/10/03 04:32:53;;;;;;;29.95;15.07;;;23.70;99.90;;;;;;5092188;28;20051;-77
2023/10/03 04:35:19;;;;;;;32.55;14.40;;;23.50;99.90;;;;;;5091985;28;20392;-76
2023/10/03 04:37:52;;;;;;;28.98;12.95;;;23.90;99.90;;;;;;5092119;28;20456;-76
2023/10/03 04:40:22;;;;;;;31.35;13.93;;;23.80;99.90;;;;;;5091597;28;20089;-77
2023/10/03 04:42:52;;;;;;;34.28;15.68;;;24.10;99.90;;;;;;5074945;28;20483;-77
2023/10/03 04:45:22;;;;;;;32.08;13.88;;;24.00;99.90;;;;;;5091768;28;20044;-76
2023/10/03 04:47:48;;;;;;;29.88;14.23;;;24.20;99.90;;;;;;5075627;28;20045;-76
2023/10/03 04:50:18;;;;;;;37.15;14.48;;;24.50;99.90;;;;;;5054845;28;20115;-76
2023/10/03 04:52:50;;;;;;;37.72;14.30;;;23.90;99.90;;;;;;5072779;28;20045;-77
2023/10/03 04:55:16;;;;;;;36.00;15.68;;;24.10;99.90;;;;;;5054745;28;20079;-77
2023/10/03 04:57:44;;;;;;;33.92;14.13;;;24.50;99.90;;;;;;5071130;28;20531;-76
2023/10/03 05:00:11;;;;;;;35.80;15.38;;;23.90;99.90;;;;;;5071161;28;20039;-76
2023/10/03 05:02:37;;;;;;;37.22;15.00;;;23.90;99.90;;;;;;5071276;28;20043;-77
2023/10/03 05:05:03;;;;;;;35.00;14.63;;;24.00;99.90;;;;;;5054462;28;20040;-76
2023/10/03 05:07:28;;;;;;;35.13;17.50;;;23.90;99.90;;;;;;5053885;28;20044;-76
2023/10/03 05:09:54;;;;;;;35.83;16.67;;;24.60;99.90;;;;;;5054566;28;20041;-76
2023/10/03 05:12:20;;;;;;;34.20;16.67;;;24.40;99.90;;;;;;5071046;28;20041;-76
2023/10/03 05:14:47;;;;;;;41.00;16.58;;;24.30;99.90;;;;;;5070583;28;20044;-76
2023/10/03 05:17:14;;;;;;;46.90;19.20;;;24.30;99.90;;;;;;5070623;28;20491;-76
2023/10/03 05:19:41;;;;;;;45.65;18.52;;;24.70;99.90;;;;;;5070677;28;20116;-76
2023/10/03 05:22:08;;;;;;;43.72;17.45;;;24.10;99.90;;;;;;5072283;28;20048;-76
2023/10/03 05:24:34;;;;;;;44.85;17.55;;;24.50;99.90;;;;;;5070839;28;20076;-77
2023/10/03 05:27:00;;;;;;;47.75;19.90;;;23.80;99.90;;;;;;5070761;28;20048;-76
2023/10/03 05:29:29;;;;;;;46.28;17.95;;;24.50;99.90;;;;;;5070634;28;20051;-77
2023/10/03 05:31:54;;;;;;;46.53;18.83;;;24.60;99.90;;;;;;5070637;28;20132;-76
2023/10/03 05:34:21;;;;;;;42.80;18.35;;;24.60;99.90;;;;;;5054133;28;20166;-77
2023/10/03 05:36:48;;;;;;;44.13;18.83;;;24.40;99.90;;;;;;5054273;28;20067;-77
2023/10/03 05:39:15;;;;;;;46.97;19.35;;;23.80;99.90;;;;;;5053947;28;20120;-77
2023/10/03 05:41:41;;;;;;;47.72;21.17;;;24.40;99.90;;;;;;5053631;28;20119;-76
2023/10/03 05:44:13;;;;;;;39.38;18.60;;;24.50;99.90;;;;;;5070638;28;20400;-77
2023/10/03 05:46:40;;;;;;;48.33;18.55;;;23.80;99.90;;;;;;5070525;28;20128;-76
2023/10/03 05:49:06;;;;;;;37.13;17.33;;;24.10;99.90;;;;;;5070284;28;20040;-76
2023/10/03 05:51:33;;;;;;;47.35;20.13;;;23.80;99.90;;;;;;5070341;28;20044;-76
2023/10/03 05:53:59;;;;;;;46.38;19.77;;;24.40;99.90;;;;;;5075783;28;20047;-77
2023/10/03 05:56:27;;;;;;;52.38;18.88;;;24.00;99.90;;;;;;5072280;28;20108;-76
2023/10/03 05:58:55;;;;;;;41.33;19.20;;;24.40;99.90;;;;;;5092220;28;20040;-76
2023/10/03 06:01:21;;;;;;;40.55;17.33;;;23.90;99.90;;;;;;5066705;28;20038;-77
2023/10/03 06:03:47;;;;;;;45.08;19.38;;;23.70;99.90;;;;;;5061694;28;20028;-77
2023/10/03 06:06:14;;;;;;;41.58;19.67;;;23.50;99.90;;;;;;5077918;28;20059;-76
2023/10/03 06:08:40;;;;;;;41.47;18.73;;;24.30;99.90;;;;;;5076718;28;20044;-76
2023/10/03 06:11:05;;;;;;;42.03;17.83;;;24.40;99.90;;;;;;5055653;28;20060;-77
2023/10/03 06:13:31;;;;;;;42.00;17.92;;;23.90;99.90;;;;;;5084028;28;20036;-77
2023/10/03 06:16:00;;;;;;;39.90;16.33;;;23.90;99.90;;;;;;5077354;28;20514;-77
2023/10/03 06:18:27;;;;;;;34.50;16.70;;;24.10;99.90;;;;;;5056703;28;20036;-77
2023/10/03 06:20:53;;;;;;;31.27;13.40;;;24.30;99.90;;;;;;5070325;28;20044;-77
2023/10/03 06:23:18;;;;;;;35.88;15.77;;;24.30;99.90;;;;;;5072829;28;20028;-76
2023/10/03 06:25:44;;;;;;;35.78;14.70;;;23.40;99.90;;;;;;5077038;28;20039;-77
2023/10/03 06:28:09;;;;;;;28.52;13.35;;;24.00;99.90;;;;;;5075149;28;20032;-77
2023/10/03 06:30:38;;;;;;;30.55;13.95;;;24.10;99.90;;;;;;5082093;28;20676;-76
2023/10/03 06:33:05;;;;;;;37.67;15.23;;;24.30;99.90;;;;;;5075472;28;20558;-76
2023/10/03 06:35:32;;;;;;;25.63;12.95;;;23.20;99.90;;;;;;5061633;28;20173;-77
2023/10/03 06:37:57;;;;;;;33.38;13.50;;;23.10;99.90;;;;;;5076979;28;20060;-76
2023/10/03 06:40:23;;;;;;;32.08;12.32;;;23.10;99.90;;;;;;5082383;28;20499;-76
2023/10/03 06:42:49;;;;;;;23.77;10.27;;;23.00;99.90;;;;;;5074453;28;20028;-75
2023/10/03 06:45:14;;;;;;;25.27;10.75;;;23.80;99.90;;;;;;5068421;28;20662;-75
2023/10/03 06:47:41;;;;;;;23.80;10.23;;;;;;;;;;5056539;28;20039;-76
2023/10/03 06:50:07;;;;;;;23.98;9.00;;;23.20;99.90;;;;;;5078811;28;20041;-76
2023/10/03 06:52:34;;;;;;;26.00;10.23;;;23.20;99.90;;;;;;5073957;28;20415;-74
2023/10/03 06:55:03;;;;;;;26.25;11.02;;;23.40;99.90;;;;;;5061599;28;20449;-74
2023/10/03 06:57:29;;;;;;;31.63;11.50;;;23.40;99.90;;;;;;5065239;28;20511;-74
2023/10/03 06:59:54;;;;;;;33.28;11.00;;;23.30;99.90;;;;;;5060207;28;20102;-73
2023/10/03 07:02:21;;;;;;;41.80;10.43;;;22.70;99.90;;;;;;5063845;28;20032;-73
2023/10/03 07:04:47;;;;;;;36.90;9.35;;;22.70;99.90;;;;;;5067343;28;20048;-73
2023/10/03 07:07:12;;;;;;;25.15;8.60;;;22.50;99.90;;;;;;5062103;28;21049;-73
2023/10/03 07:09:38;;;;;;;38.55;8.95;;;;;;;;;;5061672;28;20036;-74
2023/10/03 07:12:07;;;;;;;26.23;7.35;;;23.00;99.90;;;;;;5062940;28;20044;-74
2023/10/03 07:14:35;;;;;;;25.27;7.10;;;22.50;99.90;;;;;;5057531;28;20090;-74
2023/10/03 07:17:02;;;;;;;24.77;7.40;;;22.20;99.90;;;;;;5061415;28;20076;-73
2023/10/03 07:19:30;;;;;;;22.30;6.50;;;22.60;99.90;;;;;;5056963;28;20044;-74
2023/10/03 07:21:58;;;;;;;24.83;6.55;;;22.40;99.90;;;;;;5059871;28;20028;-74
2023/10/03 07:24:28;;;;;;;19.17;6.10;;;22.10;99.90;;;;;;5056169;28;20052;-74
2023/10/03 07:26:54;;;;;;;23.63;6.35;;;22.70;99.90;;;;;;5060349;28;20578;-73
2023/10/03 07:29:21;;;;;;;21.65;6.45;;;22.00;99.90;;;;;;5060958;28;20141;-73
2023/10/03 07:31:47;;;;;;;19.08;4.88;;;22.30;99.90;;;;;;5059437;28;20047;-73
2023/10/03 07:34:17;;;;;;;18.58;4.45;;;21.90;99.90;;;;;;5069561;28;20049;-73
2023/10/03 07:36:43;;;;;;;17.38;4.13;;;21.90;99.90;;;;;;5068273;28;20068;-73
2023/10/03 07:39:09;;;;;;;17.70;4.93;;;22.50;99.90;;;;;;5075265;28;20035;-73
2023/10/03 07:41:35;;;;;;;13.75;3.58;;;22.10;99.90;;;;;;5075887;28;20039;-74
2023/10/03 07:44:01;;;;;;;21.08;4.35;;;22.30;99.90;;;;;;5076103;28;20456;-73
2023/10/03 07:46:27;;;;;;;13.77;4.60;;;21.90;99.90;;;;;;5076068;28;20039;-74
2023/10/03 07:48:53;;;;;;;13.60;3.50;;;22.10;99.90;;;;;;5075313;28;20427;-74
2023/10/03 07:51:25;;;;;;;13.20;4.10;;;22.40;99.90;;;;;;5075074;28;20032;-74
2023/10/03 07:53:52;;;;;;;12.48;3.03;;;21.80;99.90;;;;;;5074863;28;20036;-74
2023/10/03 07:56:25;;;;;;;13.88;3.03;;;22.20;99.90;;;;;;5075162;28;20082;-74
2023/10/03 07:58:54;;;;;;;9.73;2.65;;;21.90;99.90;;;;;;5075813;28;20046;-74
2023/10/03 08:01:27;;;;;;;14.38;2.67;;;22.00;99.90;;;;;;5074790;28;20032;-74
2023/10/03 08:03:56;;;;;;;11.77;2.22;;;21.80;99.90;;;;;;5074289;28;20040;-74
2023/10/03 08:06:23;;;;;;;12.20;2.30;;;22.00;99.90;;;;;;5075602;28;20067;-74
2023/10/03 08:08:52;;;;;;;7.13;1.92;;;21.50;99.90;;;;;;5055150;28;20046;-74
2023/10/03 08:11:21;;;;;;;8.23;2.65;;;21.70;99.90;;;;;;5055678;28;20041;-74
2023/10/03 08:13:49;;;;;;;7.90;2.08;;;21.70;99.90;;;;;;5055623;28;20504;-74
2023/10/03 08:16:15;;;;;;;7.50;2.33;;;22.00;99.90;;;;;;5055645;28;20416;-74
2023/10/03 08:18:46;;;;;;;8.40;1.50;;;21.80;99.90;;;;;;5055274;28;20036;-74
2023/10/03 08:21:12;;;;;;;6.93;2.25;;;21.90;99.90;;;;;;5055371;28;20509;-74
2023/10/03 08:23:38;;;;;;;5.88;1.65;;;21.80;99.90;;;;;;5069323;28;20031;-74
2023/10/03 08:26:04;;;;;;;5.28;1.83;;;22.00;99.90;;;;;;5075496;28;20127;-74
2023/10/03 08:28:31;;;;;;;7.80;1.77;;;;;;;;;;5075334;28;20047;-74
2023/10/03 08:31:05;;;;;;;6.63;1.73;;;22.20;99.90;;;;;;5075084;28;20502;-74
2023/10/03 08:33:36;;;;;;;5.20;1.42;;;21.80;99.90;;;;;;5074982;28;20040;-74
2023/10/03 08:36:14;;;;;;;5.30;1.70;;;22.10;99.90;;;;;;5073949;28;20040;-74
2023/10/03 08:38:43;;;;;;;7.10;1.55;;;21.90;99.90;;;;;;5072293;28;20032;-74
2023/10/03 08:41:26;;;;;;;5.53;1.42;;;21.10;99.90;;;;;;5075065;28;20465;-74
2023/10/03 08:43:56;;;;;;;11.13;1.50;;;21.50;99.90;;;;;;5075171;28;20040;-74
2023/10/03 08:46:28;;;;;;;8.30;1.48;;;21.70;99.90;;;;;;5075126;28;20040;-74
2023/10/03 08:49:00;;;;;;;6.57;0.90;;;21.30;99.90;;;;;;5074584;28;20039;-74
2023/10/03 08:51:33;;;;;;;8.45;1.80;;;20.90;99.90;;;;;;5073842;28;20165;-74
2023/10/03 08:54:10;;;;;;;6.88;1.15;;;20.90;99.90;;;;;;5074486;28;20161;-74
2023/10/03 08:56:37;;;;;;;4.13;0.93;;;21.20;99.90;;;;;;5074500;28;20040;-74
2023/10/03 08:59:07;;;;;;;3.88;0.90;;;20.80;99.90;;;;;;5074810;28;20113;-74
2023/10/03 09:01:37;;;;;;;3.67;0.93;;;20.80;99.90;;;;;;5074445;28;20043;-74
2023/10/03 09:04:09;;;;;;;4.30;0.63;;;21.10;99.90;;;;;;5074868;28;20042;-74
2023/10/03 09:06:38;;;;;;;4.15;0.95;;;21.00;99.90;;;;;;5074726;28;20028;-74
2023/10/03 09:09:08;;;;;;;4.18;1.13;;;21.20;99.90;;;;;;5074558;28;20040;-74
2023/10/03 09:11:37;;;;;;;3.15;1.10;;;21.00;99.90;;;;;;5091068;28;20051;-74
2023/10/03 09:14:22;;;;;;;6.05;1.48;;;20.90;99.90;;;;;;5074721;28;20113;-75
2023/10/03 09:16:52;;;;;;;3.53;0.70;;;21.00;99.90;;;;;;5074406;28;20035;-74
2023/10/03 09:19:23;;;;;;;5.00;1.00;;;21.10;99.90;;;;;;5074135;28;20085;-74
2023/10/03 09:21:53;;;;;;;7.25;1.05;;;20.80;99.90;;;;;;5074410;28;20086;-74
2023/10/03 09:24:24;;;;;;;2.72;0.90;;;21.30;99.90;;;;;;5074105;28;20542;-74
2023/10/03 09:26:52;;;;;;;6.55;0.95;;;21.30;99.90;;;;;;5074300;28;20128;-74
2023/10/03 09:29:30;;;;;;;3.80;0.75;;;21.60;99.90;;;;;;5074283;28;20403;-74
2023/10/03 09:32:19;;;;;;;2.63;1.05;;;21.30;99.90;;;;;;5073878;28;20498;-74
2023/10/03 09:34:56;;;;;;;7.80;1.17;;;21.30;99.90;;;;;;5073943;28;20161;-74
2023/10/03 09:37:28;;;;;;;4.47;1.00;;;21.40;99.90;;;;;;5073659;28;20438;-74
2023/10/03 09:39:59;;;;;;;4.28;1.45;;;21.00;99.90;;;;;;5073777;28;20562;-73
2023/10/03 09:42:25;;;;;;;4.70;1.52;;;21.00;99.90;;;;;;5074114;28;20040;-74
2023/10/03 09:44:57;;;;;;;9.20;1.30;;;21.20;99.90;;;;;;5090712;28;20248;-74
2023/10/03 09:47:30;;;;;;;3.35;0.85;;;21.40;99.90;;;;;;5073619;28;20127;-74
2023/10/03 09:50:14;;;;;;;5.40;0.80;;;21.20;99.90;;;;;;5073599;28;20109;-74
2023/10/03 09:52:44;;;;;;;8.63;0.93;;;21.30;99.90;;;;;;5090196;28;20047;-74
2023/10/03 09:55:26;;;;;;;5.35;1.10;;;;;;;;;;5073712;28;20109;-74
2023/10/03 09:57:54;;;;;;;6.70;1.30;;;21.40;99.90;;;;;;5073696;28;20068;-74
2023/10/03 10:00:38;;;;;;;3.20;0.85;;;21.50;99.90;;;;;;5073798;28;20035;-74
2023/10/03 10:03:19;;;;;;;3.42;1.13;;;21.30;99.90;;;;;;5073043;28;20032;-74
2023/10/03 10:06:19;;;;;;;3.38;1.10;;;21.60;99.90;;;;;;5073739;28;20047;-74
2023/10/03 10:08:57;;;;;;;6.45;1.10;;;21.50;99.90;;;;;;5055559;28;20410;-74
2023/10/03 10:11:26;;;;;;;3.85;1.27;;;21.20;99.90;;;;;;5073291;28;20093;-73
2023/10/03 10:14:16;;;;;;;6.60;1.63;;;21.30;99.90;;;;;;5073680;28;20466;-74
2023/10/03 10:17:04;;;;;;;8.52;1.38;;;21.60;99.90;;;;;;5073503;28;20047;-73
2023/10/03 10:20:09;;;;;;;4.15;1.17;;;21.20;99.90;;;;;;5053369;28;20040;-73
2023/10/03 10:23:13;;;;;;;6.53;1.67;;;21.40;99.90;;;;;;5052710;28;20048;-72
2023/10/03 10:25:43;;;;;;;7.90;1.65;;;22.20;99.90;;;;;;5089535;28;20047;-73
2023/10/03 10:28:11;;;;;;;5.53;1.85;;;22.10;99.90;;;;;;5089978;28;20072;-73
2023/10/03 10:30:44;;;;;;;7.72;1.77;;;22.00;99.90;;;;;;5090079;28;20041;-73
2023/10/03 10:33:16;;;;;;;6.43;2.92;;;22.10;99.90;;;;;;5090157;28;20040;-74
2023/10/03 10:36:07;;;;;;;5.38;2.45;;;21.80;99.90;;;;;;5090162;28;20047;-74
2023/10/03 10:38:33;;;;;;;6.05;1.58;;;21.90;99.90;;;;;;5089950;28;20075;-75
2023/10/03 10:44:13;;;;;;;7.47;1.45;;;21.90;99.90;;;;;;5070962;28;20040;-74
2023/10/03 10:46:46;;;;;;;7.40;3.05;;;21.50;99.90;;;;;;5071876;28;20033;-74
2023/10/03 10:49:30;;;;;;;8.50;2.88;;;21.40;99.90;;;;;;5074353;28;20036;-74
2023/10/03 10:52:10;;;;;;;8.43;1.83;;;21.30;99.90;;;;;;5054422;28;20051;-74
2023/10/03 10:54:39;;;;;;;4.03;2.05;;;20.90;99.90;;;;;;5057614;28;20119;-74
2023/10/03 10:57:11;;;;;;;8.40;1.75;;;20.90;99.90;;;;;;5083460;28;20036;-73
2023/10/03 10:59:40;;;;;;;4.88;1.52;;;20.80;99.90;;;;;;5068278;28;20128;-74
2023/10/03 11:02:21;;;;;;;5.00;1.48;;;21.20;99.90;;;;;;5054913;28;20037;-74
2023/10/03 11:05:01;;;;;;;3.90;1.65;;;21.00;99.90;;;;;;5073056;28;20083;-74
2023/10/03 11:07:28;;;;;;;8.20;3.10;;;21.00;99.90;;;;;;5073130;28;20040;-74
2023/10/03 11:10:07;;;;;;;7.68;3.13;;;21.10;99.90;;;;;;5072823;28;20043;-74
2023/10/03 11:12:35;;;;;;;7.70;3.75;;;20.90;99.90;;;;;;5070035;28;20039;-74
2023/10/03 11:15:01;;;;;;;10.35;3.05;;;20.70;99.90;;;;;;5075196;28;20032;-74
2023/10/03 11:17:27;;;;;;;7.25;3.03;;;20.60;99.90;;;;;;5092890;28;20031;-74
2023/10/03 11:19:55;;;;;;;9.50;3.55;;;20.70;99.90;;;;;;5092875;28;20036;-74
2023/10/03 11:22:22;;;;;;;9.40;4.68;;;20.60;99.90;;;;;;5092954;28;20032;-74
2023/10/03 11:24:48;;;;;;;10.18;3.53;;;20.60;99.90;;;;;;5092963;28;20036;-73
2023/10/03 11:27:28;;;;;;;5.53;1.92;;;20.50;99.90;;;;;;5094306;28;20040;-73
2023/10/03 11:29:55;;;;;;;5.75;2.30;;;20.50;99.90;;;;;;5090482;28;20043;-73
2023/10/03 11:32:25;;;;;;;7.90;3.13;;;20.60;99.90;;;;;;5093322;28;20051;-73
2023/10/03 11:34:52;;;;;;;9.38;2.30;;;20.90;99.90;;;;;;5092851;28;20077;-73
2023/10/03 11:37:31;;;;;;;11.07;2.78;;;20.60;99.90;;;;;;5076166;28;20114;-73
2023/10/03 11:40:14;;;;;;;11.20;3.08;;;20.60;99.90;;;;;;5090142;28;20107;-73
2023/10/03 11:42:44;;;;;;;8.85;3.28;;;21.00;99.90;;;;;;5090818;28;20036;-73
2023/10/03 11:45:23;;;;;;;7.38;2.50;;;20.90;99.90;;;;;;5076027;28;20036;-73
2023/10/03 11:48:10;;;;;;;10.60;3.30;;;20.70;99.90;;;;;;5092468;28;20082;-73
2023/10/03 11:50:37;;;;;;;11.43;2.90;;;20.70;99.90;;;;;;5091034;28;20085;-73
2023/10/03 11:53:04;;;;;;;12.70;4.20;;;21.20;99.90;;;;;;5093127;28;20589;-73
2023/10/03 11:55:32;;;;;;;8.73;2.42;;;21.00;99.90;;;;;;5092307;28;20039;-73
2023/10/03 11:57:59;;;;;;;6.25;2.72;;;21.30;99.90;;;;;;5092654;28;20036;-73
2023/10/03 12:00:25;;;;;;;9.20;2.60;;;21.50;99.90;;;;;;5092151;28;20028;-71
2023/10/03 12:02:52;;;;;;;9.05;3.40;;;21.10;99.90;;;;;;5092125;28;20024;-71
2023/10/03 12:05:18;;;;;;;8.55;3.00;;;21.10;99.90;;;;;;5092319;28;20039;-73
2023/10/03 12:07:46;;;;;;;10.57;4.15;;;21.60;99.90;;;;;;5092343;28;20671;-73
2023/10/03 12:10:18;;;;;;;7.47;2.17;;;21.40;99.90;;;;;;5092196;28;20375;-73
2023/10/03 12:12:45;;;;;;;5.97;2.28;;;21.50;99.90;;;;;;5075662;28;20063;-74
2023/10/03 12:15:12;;;;;;;9.35;2.53;;;21.50;99.90;;;;;;5092247;28;20131;-72
2023/10/03 12:17:46;;;;;;;11.63;2.15;;;21.60;99.90;;;;;;5092056;28;20043;-73
2023/10/03 12:20:17;;;;;;;10.68;3.88;;;21.40;99.90;;;;;;5091927;28;20060;-73
2023/10/03 12:22:49;;;;;;;11.48;2.90;;;21.60;99.90;;;;;;5092259;28;20039;-73
2023/10/03 12:25:17;;;;;;;7.80;2.00;;;21.60;99.90;;;;;;5092158;28;20036;-73
2023/10/03 12:27:44;;;;;;;6.63;1.95;;;21.50;99.90;;;;;;5092062;28;20039;-73
2023/10/03 12:30:12;;;;;;;8.43;2.17;;;21.50;99.90;;;;;;5091915;28;20114;-73
2023/10/03 12:32:44;;;;;;;6.75;2.00;;;21.40;99.90;;;;;;5092162;28;20371;-73
2023/10/03 12:35:11;;;;;;;11.45;3.33;;;21.50;99.90;;;;;;5075099;28;20036;-73
2023/10/03 12:37:38;;;;;;;8.13;2.30;;;21.50;99.90;;;;;;5091929;28;20040;-73
2023/10/03 12:40:08;;;;;;;8.95;2.83;;;21.50;99.90;;;;;;5074820;28;20039;-73
2023/10/03 12:42:34;;;;;;;6.25;2.28;;;21.50;99.90;;;;;;5092193;28;20111;-73
2023/10/03 12:45:03;;;;;;;4.78;1.73;;;21.60;99.90;;;;;;5091926;28;20078;-73
2023/10/03 12:47:35;;;;;;;11.02;2.75;;;21.30;99.90;;;;;;5074824;28;20040;-74
2023/10/03 12:50:02;;;;;;;21.08;3.13;;;21.40;99.90;;;;;;5091518;28;20036;-74
2023/10/03 12:52:29;;;;;;;8.55;2.25;;;21.80;99.90;;;;;;5092283;28;20065;-74
2023/10/03 12:54:56;;;;;;;8.90;2.05;;;21.60;99.90;;;;;;5074908;28;20040;-74